sensor_id;sensor_type;location;lat;lon;timestamp;temperature;humidity
52965;DHT22;42923;53.220;6.528;2023-05-10T00:00:33;12.70;99.90
52965;DHT22;42923;53.220;6.528;2023-05-10T00:02:59;12.80;99.90
52965;DHT22;42923;53.220;6.528;2023-05-10T00:05:25;12.70;99.90
52965;DHT22;42923;53.220;6.528;2023-05-10T00:07:50;12.70;99.90
52965;DHT22;42923;53.220;6.528;2023-05-10T00:10:16;12.70;99.90
52965;DHT22;42923;53.220;6.528;2023-05-10T00:12:42;12.70;99.90
52965;DHT22;42923;53.220;6.528;2023-05-10T00:15:08;12.70;99.90
52965;DHT22;42923;53.220;6.528;2023-05-10T00:17:34;12.60;99.90
52965;DHT22;42923;53.220;6.528;2023-05-10T00:20:00;12.60;99.90
52965;DHT22;42923;53.220;6.528;2023-05-10T00:22:26;12.60;99.90
52965;DHT22;42923;53.220;6.528;2023-05-10T00:24:51;12.50;99.90
52965;DHT22;42923;53.220;6.528;2023-05-10T00:27:17;12.50;99.90
52965;DHT22;42923;53.220;6.528;2023-05-10T00:29:43;12.50;99.90
52965;DHT22;42923;53.220;6.528;2023-05-10T00:32:08;12.50;99.90
52965;DHT22;42923;53.220;6.528;2023-05-10T00:34:34;12.50;99.90
52965;DHT22;42923;53.220;6.528;2023-05-10T00:37:00;12.50;99.90
52965;DHT22;42923;53.220;6.528;2023-05-10T00:39:26;12.50;99.90
52965;DHT22;42923;53.220;6.528;2023-05-10T00:41:54;12.40;99.90
52965;DHT22;42923;53.220;6.528;2023-05-10T00:44:20;12.40;99.90
52965;DHT22;42923;53.220;6.528;2023-05-10T00:46:47;12.50;99.90
52965;DHT22;42923;53.220;6.528;2023-05-10T00:49:13;12.40;99.90
52965;DHT22;42923;53.220;6.528;2023-05-10T00:51:39;12.50;99.90
52965;DHT22;42923;53.220;6.528;2023-05-10T00:54:05;12.50;99.90
52965;DHT22;42923;53.220;6.528;2023-05-10T00:56:31;12.40;99.90
52965;DHT22;42923;53.220;6.528;2023-05-10T00:58:56;12.50;99.90
52965;DHT22;42923;53.220;6.528;2023-05-10T01:01:22;12.40;99.90
52965;DHT22;42923;53.220;6.528;2023-05-10T01:03:48;12.40;99.90
52965;DHT22;42923;53.220;6.528;2023-05-10T01:06:15;12.40;99.90
52965;DHT22;42923;53.220;6.528;2023-05-10T01:08:40;12.40;99.90
52965;DHT22;42923;53.220;6.528;2023-05-10T01:11:06;12.40;99.90
52965;DHT22;42923;53.220;6.528;2023-05-10T01:13:38;12.40;99.90
52965;DHT22;42923;53.220;6.528;2023-05-10T01:16:05;12.40;99.90
52965;DHT22;42923;53.220;6.528;2023-05-10T01:18:37;12.30;99.90
52965;DHT22;42923;53.220;6.528;2023-05-10T01:24:09;12.30;99.90
52965;DHT22;42923;53.220;6.528;2023-05-10T01:35:03;12.20;99.90
52965;DHT22;42923;53.220;6.528;2023-05-10T01:37:45;12.20;99.90
52965;DHT22;42923;53.220;6.528;2023-05-10T01:40:35;12.20;99.90
52965;DHT22;42923;53.220;6.528;2023-05-10T01:43:06;12.20;99.90
52965;DHT22;42923;53.220;6.528;2023-05-10T01:45:49;12.20;99.90
52965;DHT22;42923;53.220;6.528;2023-05-10T01:48:18;12.20;99.90
52965;DHT22;42923;53.220;6.528;2023-05-10T01:50:46;12.10;99.90
52965;DHT22;42923;53.220;6.528;2023-05-10T01:53:13;12.10;99.90
52965;DHT22;42923;53.220;6.528;2023-05-10T01:55:49;12.20;99.90
52965;DHT22;42923;53.220;6.528;2023-05-10T01:58:23;12.10;99.90
52965;DHT22;42923;53.220;6.528;2023-05-10T02:00:52;12.10;99.90
52965;DHT22;42923;53.220;6.528;2023-05-10T02:03:22;12.10;99.90
52965;DHT22;42923;53.220;6.528;2023-05-10T02:05:50;12.10;99.90
52965;DHT22;42923;53.220;6.528;2023-05-10T02:08:17;12.20;99.90
52965;DHT22;42923;53.220;6.528;2023-05-10T02:10:45;12.10;99.90
52965;DHT22;42923;53.220;6.528;2023-05-10T02:13:12;12.10;99.90
52965;DHT22;42923;53.220;6.528;2023-05-10T02:15:39;12.10;99.90
52965;DHT22;42923;53.220;6.528;2023-05-10T02:18:06;12.10;99.90
52965;DHT22;42923;53.220;6.528;2023-05-10T02:20:34;12.30;99.90
52965;DHT22;42923;53.220;6.528;2023-05-10T02:23:01;12.10;99.90
52965;DHT22;42923;53.220;6.528;2023-05-10T02:25:29;12.00;99.90
52965;DHT22;42923;53.220;6.528;2023-05-10T02:27:57;12.10;99.90
52965;DHT22;42923;53.220;6.528;2023-05-10T02:30:23;12.00;99.90
52965;DHT22;42923;53.220;6.528;2023-05-10T02:32:51;12.00;99.90
52965;DHT22;42923;53.220;6.528;2023-05-10T02:35:18;12.00;99.90
52965;DHT22;42923;53.220;6.528;2023-05-10T02:37:45;12.00;99.90
52965;DHT22;42923;53.220;6.528;2023-05-10T02:40:11;12.00;99.90
52965;DHT22;42923;53.220;6.528;2023-05-10T02:42:41;12.00;99.90
52965;DHT22;42923;53.220;6.528;2023-05-10T02:45:11;12.00;99.90
52965;DHT22;42923;53.220;6.528;2023-05-10T02:47:38;12.00;99.90
52965;DHT22;42923;53.220;6.528;2023-05-10T02:50:05;12.00;99.90
52965;DHT22;42923;53.220;6.528;2023-05-10T02:52:39;12.00;99.90
52965;DHT22;42923;53.220;6.528;2023-05-10T02:55:05;12.00;99.90
52965;DHT22;42923;53.220;6.528;2023-05-10T02:57:33;12.00;99.90
52965;DHT22;42923;53.220;6.528;2023-05-10T03:00:01;12.00;99.90
52965;DHT22;42923;53.220;6.528;2023-05-10T03:02:28;12.10;99.90
52965;DHT22;42923;53.220;6.528;2023-05-10T03:04:56;12.10;99.90
52965;DHT22;42923;53.220;6.528;2023-05-10T03:07:22;12.10;99.90
52965;DHT22;42923;53.220;6.528;2023-05-10T03:09:49;12.20;99.90
52965;DHT22;42923;53.220;6.528;2023-05-10T03:12:24;12.10;99.90
52965;DHT22;42923;53.220;6.528;2023-05-10T03:15:13;12.10;99.90
52965;DHT22;42923;53.220;6.528;2023-05-10T03:20:38;12.10;99.90
52965;DHT22;42923;53.220;6.528;2023-05-10T03:23:40;12.00;99.90
52965;DHT22;42923;53.220;6.528;2023-05-10T03:26:08;12.10;99.90
52965;DHT22;42923;53.220;6.528;2023-05-10T03:28:34;12.00;99.90
52965;DHT22;42923;53.220;6.528;2023-05-10T03:31:04;12.10;99.90
52965;DHT22;42923;53.220;6.528;2023-05-10T03:33:32;12.10;99.90
52965;DHT22;42923;53.220;6.528;2023-05-10T03:35:58;12.00;99.90
52965;DHT22;42923;53.220;6.528;2023-05-10T03:38:25;12.00;99.90
52965;DHT22;42923;53.220;6.528;2023-05-10T03:40:51;12.10;99.90
52965;DHT22;42923;53.220;6.528;2023-05-10T03:43:17;12.00;99.90
52965;DHT22;42923;53.220;6.528;2023-05-10T03:45:42;12.00;99.90
52965;DHT22;42923;53.220;6.528;2023-05-10T03:48:08;12.00;99.90
52965;DHT22;42923;53.220;6.528;2023-05-10T03:50:33;12.10;99.90
52965;DHT22;42923;53.220;6.528;2023-05-10T03:52:59;12.10;99.90
52965;DHT22;42923;53.220;6.528;2023-05-10T03:55:27;12.20;99.90
52965;DHT22;42923;53.220;6.528;2023-05-10T03:57:53;12.10;99.90
52965;DHT22;42923;53.220;6.528;2023-05-10T04:00:21;12.10;99.90
52965;DHT22;42923;53.220;6.528;2023-05-10T04:02:50;12.40;99.90
52965;DHT22;42923;53.220;6.528;2023-05-10T04:05:18;12.10;99.90
52965;DHT22;42923;53.220;6.528;2023-05-10T04:07:44;12.10;99.90
52965;DHT22;42923;53.220;6.528;2023-05-10T04:10:11;12.10;99.90
52965;DHT22;42923;53.220;6.528;2023-05-10T04:12:37;12.00;99.90
52965;DHT22;42923;53.220;6.528;2023-05-10T04:15:03;12.00;99.90
52965;DHT22;42923;53.220;6.528;2023-05-10T04:17:29;12.00;99.90
52965;DHT22;42923;53.220;6.528;2023-05-10T04:19:55;12.00;99.90
52965;DHT22;42923;53.220;6.528;2023-05-10T04:22:21;12.00;99.90
52965;DHT22;42923;53.220;6.528;2023-05-10T04:24:47;12.00;99.90
52965;DHT22;42923;53.220;6.528;2023-05-10T04:27:12;12.00;99.90
52965;DHT22;42923;53.220;6.528;2023-05-10T04:29:38;11.90;99.90
52965;DHT22;42923;53.220;6.528;2023-05-10T04:32:04;11.90;99.90
52965;DHT22;42923;53.220;6.528;2023-05-10T04:34:29;11.90;99.90
52965;DHT22;42923;53.220;6.528;2023-05-10T04:36:55;11.90;99.90
52965;DHT22;42923;53.220;6.528;2023-05-10T04:39:21;11.90;99.90
52965;DHT22;42923;53.220;6.528;2023-05-10T04:41:47;12.00;99.90
52965;DHT22;42923;53.220;6.528;2023-05-10T04:44:12;11.90;99.90
52965;DHT22;42923;53.220;6.528;2023-05-10T04:46:38;11.90;99.90
52965;DHT22;42923;53.220;6.528;2023-05-10T04:49:04;11.90;99.90
52965;DHT22;42923;53.220;6.528;2023-05-10T04:51:29;12.00;99.90
52965;DHT22;42923;53.220;6.528;2023-05-10T04:53:55;11.90;99.90
52965;DHT22;42923;53.220;6.528;2023-05-10T04:56:21;11.90;99.90
52965;DHT22;42923;53.220;6.528;2023-05-10T04:58:47;11.90;99.90
52965;DHT22;42923;53.220;6.528;2023-05-10T05:01:13;11.90;99.90
52965;DHT22;42923;53.220;6.528;2023-05-10T05:03:39;11.90;99.90
52965;DHT22;42923;53.220;6.528;2023-05-10T05:06:05;11.90;99.90
52965;DHT22;42923;53.220;6.528;2023-05-10T05:08:31;11.90;99.90
52965;DHT22;42923;53.220;6.528;2023-05-10T05:10:56;11.90;99.90
52965;DHT22;42923;53.220;6.528;2023-05-10T05:13:22;11.90;99.90
52965;DHT22;42923;53.220;6.528;2023-05-10T05:15:48;11.90;99.90
52965;DHT22;42923;53.220;6.528;2023-05-10T05:18:13;11.90;99.90
52965;DHT22;42923;53.220;6.528;2023-05-10T05:20:39;11.90;99.90
52965;DHT22;42923;53.220;6.528;2023-05-10T05:23:05;11.90;99.90
52965;DHT22;42923;53.220;6.528;2023-05-10T05:25:31;12.00;99.90
52965;DHT22;42923;53.220;6.528;2023-05-10T05:27:56;12.00;99.90
52965;DHT22;42923;53.220;6.528;2023-05-10T05:30:22;12.00;99.90
52965;DHT22;42923;53.220;6.528;2023-05-10T05:32:48;12.10;99.90
52965;DHT22;42923;53.220;6.528;2023-05-10T05:35:13;12.00;99.90
52965;DHT22;42923;53.220;6.528;2023-05-10T05:37:39;12.00;99.90
52965;DHT22;42923;53.220;6.528;2023-05-10T05:40:05;12.00;99.90
52965;DHT22;42923;53.220;6.528;2023-05-10T05:42:31;12.10;99.90
52965;DHT22;42923;53.220;6.528;2023-05-10T05:44:57;12.10;99.90
52965;DHT22;42923;53.220;6.528;2023-05-10T05:47:23;12.10;99.90
52965;DHT22;42923;53.220;6.528;2023-05-10T05:49:49;12.10;99.90
52965;DHT22;42923;53.220;6.528;2023-05-10T05:52:14;12.20;99.90
52965;DHT22;42923;53.220;6.528;2023-05-10T05:54:40;12.10;99.90
52965;DHT22;42923;53.220;6.528;2023-05-10T05:57:06;12.20;99.90
52965;DHT22;42923;53.220;6.528;2023-05-10T05:59:31;12.20;99.90
52965;DHT22;42923;53.220;6.528;2023-05-10T06:01:57;12.20;99.90
52965;DHT22;42923;53.220;6.528;2023-05-10T06:04:23;12.20;99.90
52965;DHT22;42923;53.220;6.528;2023-05-10T06:06:48;12.10;99.90
52965;DHT22;42923;53.220;6.528;2023-05-10T06:09:14;12.20;99.90
52965;DHT22;42923;53.220;6.528;2023-05-10T06:11:40;12.20;99.90
52965;DHT22;42923;53.220;6.528;2023-05-10T06:14:06;12.20;99.90
52965;DHT22;42923;53.220;6.528;2023-05-10T06:16:35;12.20;99.90
52965;DHT22;42923;53.220;6.528;2023-05-10T06:19:00;12.30;99.90
52965;DHT22;42923;53.220;6.528;2023-05-10T06:21:26;12.20;99.90
52965;DHT22;42923;53.220;6.528;2023-05-10T06:23:52;12.20;99.90
52965;DHT22;42923;53.220;6.528;2023-05-10T06:26:17;12.20;99.90
52965;DHT22;42923;53.220;6.528;2023-05-10T06:28:43;12.10;99.90
52965;DHT22;42923;53.220;6.528;2023-05-10T06:31:09;12.10;99.90
52965;DHT22;42923;53.220;6.528;2023-05-10T06:33:36;12.10;99.90
52965;DHT22;42923;53.220;6.528;2023-05-10T06:36:02;12.10;99.90
52965;DHT22;42923;53.220;6.528;2023-05-10T06:38:28;12.10;99.90
52965;DHT22;42923;53.220;6.528;2023-05-10T06:40:54;12.10;99.90
52965;DHT22;42923;53.220;6.528;2023-05-10T06:43:19;12.00;99.90
52965;DHT22;42923;53.220;6.528;2023-05-10T06:45:45;12.00;99.90
52965;DHT22;42923;53.220;6.528;2023-05-10T06:48:11;12.00;99.90
52965;DHT22;42923;53.220;6.528;2023-05-10T06:50:36;12.00;99.90
52965;DHT22;42923;53.220;6.528;2023-05-10T06:53:02;12.00;99.90
52965;DHT22;42923;53.220;6.528;2023-05-10T06:55:28;12.00;99.90
52965;DHT22;42923;53.220;6.528;2023-05-10T06:57:54;12.00;99.90
52965;DHT22;42923;53.220;6.528;2023-05-10T07:00:20;12.00;99.90
52965;DHT22;42923;53.220;6.528;2023-05-10T07:02:46;12.00;99.90
52965;DHT22;42923;53.220;6.528;2023-05-10T07:05:12;12.00;99.90
52965;DHT22;42923;53.220;6.528;2023-05-10T07:07:38;12.00;99.90
52965;DHT22;42923;53.220;6.528;2023-05-10T07:10:05;12.10;99.90
52965;DHT22;42923;53.220;6.528;2023-05-10T07:12:31;12.10;99.90
52965;DHT22;42923;53.220;6.528;2023-05-10T07:14:57;12.10;99.90
52965;DHT22;42923;53.220;6.528;2023-05-10T07:17:22;12.10;99.90
52965;DHT22;42923;53.220;6.528;2023-05-10T07:19:48;12.10;99.90
52965;DHT22;42923;53.220;6.528;2023-05-10T07:22:15;12.20;99.90
52965;DHT22;42923;53.220;6.528;2023-05-10T07:24:40;12.20;99.90
52965;DHT22;42923;53.220;6.528;2023-05-10T07:27:06;12.10;99.90
52965;DHT22;42923;53.220;6.528;2023-05-10T07:29:32;12.20;99.90
52965;DHT22;42923;53.220;6.528;2023-05-10T07:31:58;12.20;99.90
52965;DHT22;42923;53.220;6.528;2023-05-10T07:34:24;12.30;99.90
52965;DHT22;42923;53.220;6.528;2023-05-10T07:36:49;12.30;99.90
52965;DHT22;42923;53.220;6.528;2023-05-10T07:39:15;12.30;99.90
52965;DHT22;42923;53.220;6.528;2023-05-10T07:41:42;12.40;99.90
52965;DHT22;42923;53.220;6.528;2023-05-10T07:44:07;12.40;99.90
52965;DHT22;42923;53.220;6.528;2023-05-10T07:46:33;12.30;99.90
52965;DHT22;42923;53.220;6.528;2023-05-10T07:48:59;12.30;99.90
52965;DHT22;42923;53.220;6.528;2023-05-10T07:51:25;12.40;99.90
52965;DHT22;42923;53.220;6.528;2023-05-10T07:53:50;12.30;99.90
52965;DHT22;42923;53.220;6.528;2023-05-10T07:56:35;12.40;99.90
52965;DHT22;42923;53.220;6.528;2023-05-10T07:59:02;12.30;99.90
52965;DHT22;42923;53.220;6.528;2023-05-10T08:01:33;12.30;99.90
52965;DHT22;42923;53.220;6.528;2023-05-10T08:04:00;12.40;99.90
52965;DHT22;42923;53.220;6.528;2023-05-10T08:06:27;12.30;99.90
52965;DHT22;42923;53.220;6.528;2023-05-10T08:08:55;12.30;99.90
52965;DHT22;42923;53.220;6.528;2023-05-10T08:11:22;12.30;99.90
52965;DHT22;42923;53.220;6.528;2023-05-10T08:13:49;12.30;99.90
52965;DHT22;42923;53.220;6.528;2023-05-10T08:16:15;12.30;99.90
52965;DHT22;42923;53.220;6.528;2023-05-10T08:18:41;12.30;99.90
52965;DHT22;42923;53.220;6.528;2023-05-10T08:21:07;12.30;99.90
52965;DHT22;42923;53.220;6.528;2023-05-10T08:23:33;12.30;99.90
52965;DHT22;42923;53.220;6.528;2023-05-10T08:25:59;12.30;99.90
52965;DHT22;42923;53.220;6.528;2023-05-10T08:28:25;12.30;99.90
52965;DHT22;42923;53.220;6.528;2023-05-10T08:30:51;12.40;99.90
52965;DHT22;42923;53.220;6.528;2023-05-10T08:33:18;12.40;99.90
52965;DHT22;42923;53.220;6.528;2023-05-10T08:35:44;12.50;99.90
52965;DHT22;42923;53.220;6.528;2023-05-10T08:38:09;12.70;99.90
52965;DHT22;42923;53.220;6.528;2023-05-10T08:40:37;12.60;99.90
52965;DHT22;42923;53.220;6.528;2023-05-10T08:43:08;12.60;99.90
52965;DHT22;42923;53.220;6.528;2023-05-10T08:45:43;12.60;99.90
52965;DHT22;42923;53.220;6.528;2023-05-10T08:48:11;12.60;99.90
52965;DHT22;42923;53.220;6.528;2023-05-10T08:50:40;12.60;99.90
52965;DHT22;42923;53.220;6.528;2023-05-10T08:53:13;12.60;99.90
52965;DHT22;42923;53.220;6.528;2023-05-10T08:55:40;12.70;99.90
52965;DHT22;42923;53.220;6.528;2023-05-10T08:58:08;12.70;99.90
52965;DHT22;42923;53.220;6.528;2023-05-10T09:00:34;12.70;99.90
52965;DHT22;42923;53.220;6.528;2023-05-10T09:03:02;12.60;99.90
52965;DHT22;42923;53.220;6.528;2023-05-10T09:05:28;12.60;99.90
52965;DHT22;42923;53.220;6.528;2023-05-10T09:07:54;12.60;99.90
52965;DHT22;42923;53.220;6.528;2023-05-10T09:10:20;12.60;99.90
52965;DHT22;42923;53.220;6.528;2023-05-10T09:12:48;12.60;99.90
52965;DHT22;42923;53.220;6.528;2023-05-10T09:15:18;12.70;99.90
52965;DHT22;42923;53.220;6.528;2023-05-10T09:17:46;12.70;99.90
52965;DHT22;42923;53.220;6.528;2023-05-10T09:20:11;12.70;99.90
52965;DHT22;42923;53.220;6.528;2023-05-10T09:22:37;12.80;99.90
52965;DHT22;42923;53.220;6.528;2023-05-10T09:25:11;13.00;99.90
52965;DHT22;42923;53.220;6.528;2023-05-10T09:27:43;13.00;99.90
52965;DHT22;42923;53.220;6.528;2023-05-10T09:30:14;13.00;99.90
52965;DHT22;42923;53.220;6.528;2023-05-10T09:32:42;13.00;99.90
52965;DHT22;42923;53.220;6.528;2023-05-10T09:35:10;13.00;99.90
52965;DHT22;42923;53.220;6.528;2023-05-10T09:37:40;13.10;99.90
52965;DHT22;42923;53.220;6.528;2023-05-10T09:40:14;13.20;99.90
52965;DHT22;42923;53.220;6.528;2023-05-10T09:42:42;13.30;99.90
52965;DHT22;42923;53.220;6.528;2023-05-10T09:45:09;13.50;99.90
52965;DHT22;42923;53.220;6.528;2023-05-10T09:47:35;13.50;99.90
52965;DHT22;42923;53.220;6.528;2023-05-10T09:50:02;13.50;99.90
52965;DHT22;42923;53.220;6.528;2023-05-10T09:52:30;13.60;99.90
52965;DHT22;42923;53.220;6.528;2023-05-10T09:54:59;13.60;99.90
52965;DHT22;42923;53.220;6.528;2023-05-10T09:57:25;13.60;99.90
52965;DHT22;42923;53.220;6.528;2023-05-10T09:59:54;13.70;99.90
52965;DHT22;42923;53.220;6.528;2023-05-10T10:02:20;13.70;99.90
52965;DHT22;42923;53.220;6.528;2023-05-10T10:04:49;13.80;99.90
52965;DHT22;42923;53.220;6.528;2023-05-10T10:07:22;14.00;99.90
52965;DHT22;42923;53.220;6.528;2023-05-10T10:09:49;14.10;99.90
52965;DHT22;42923;53.220;6.528;2023-05-10T10:12:15;14.30;99.90
52965;DHT22;42923;53.220;6.528;2023-05-10T10:14:41;14.30;99.90
52965;DHT22;42923;53.220;6.528;2023-05-10T10:17:08;14.40;99.90
52965;DHT22;42923;53.220;6.528;2023-05-10T10:19:35;14.60;99.90
52965;DHT22;42923;53.220;6.528;2023-05-10T10:22:00;14.70;99.90
52965;DHT22;42923;53.220;6.528;2023-05-10T10:24:26;14.80;99.90
52965;DHT22;42923;53.220;6.528;2023-05-10T10:26:55;14.90;99.90
52965;DHT22;42923;53.220;6.528;2023-05-10T10:29:38;15.00;99.90
52965;DHT22;42923;53.220;6.528;2023-05-10T10:32:28;15.00;99.90
52965;DHT22;42923;53.220;6.528;2023-05-10T10:34:55;15.00;99.90
52965;DHT22;42923;53.220;6.528;2023-05-10T10:37:21;14.90;99.90
52965;DHT22;42923;53.220;6.528;2023-05-10T10:39:50;15.00;99.90
52965;DHT22;42923;53.220;6.528;2023-05-10T10:42:45;15.00;99.90
52965;DHT22;42923;53.220;6.528;2023-05-10T10:45:15;15.10;99.90
52965;DHT22;42923;53.220;6.528;2023-05-10T10:47:41;15.10;99.90
52965;DHT22;42923;53.220;6.528;2023-05-10T10:50:08;15.10;99.90
52965;DHT22;42923;53.220;6.528;2023-05-10T10:55:08;15.00;99.90
52965;DHT22;42923;53.220;6.528;2023-05-10T11:02:45;15.10;99.90
52965;DHT22;42923;53.220;6.528;2023-05-10T11:07:54;15.10;99.90
52965;DHT22;42923;53.220;6.528;2023-05-10T11:10:21;15.20;99.90
52965;DHT22;42923;53.220;6.528;2023-05-10T11:13:01;15.40;99.90
52965;DHT22;42923;53.220;6.528;2023-05-10T11:15:35;15.50;99.90
52965;DHT22;42923;53.220;6.528;2023-05-10T11:18:20;15.50;99.90
52965;DHT22;42923;53.220;6.528;2023-05-10T11:20:51;15.40;99.90
52965;DHT22;42923;53.220;6.528;2023-05-10T11:23:17;15.30;99.90
52965;DHT22;42923;53.220;6.528;2023-05-10T11:25:44;15.20;99.90
52965;DHT22;42923;53.220;6.528;2023-05-10T11:28:11;15.20;99.90
52965;DHT22;42923;53.220;6.528;2023-05-10T11:30:39;15.10;99.90
52965;DHT22;42923;53.220;6.528;2023-05-10T11:33:06;15.20;99.90
52965;DHT22;42923;53.220;6.528;2023-05-10T11:35:37;15.20;99.90
52965;DHT22;42923;53.220;6.528;2023-05-10T11:38:08;15.30;99.90
52965;DHT22;42923;53.220;6.528;2023-05-10T11:40:35;15.30;99.90
52965;DHT22;42923;53.220;6.528;2023-05-10T11:43:01;15.20;99.90
52965;DHT22;42923;53.220;6.528;2023-05-10T11:45:27;15.20;99.90
52965;DHT22;42923;53.220;6.528;2023-05-10T11:47:55;15.10;99.90
52965;DHT22;42923;53.220;6.528;2023-05-10T11:50:21;15.20;99.90
52965;DHT22;42923;53.220;6.528;2023-05-10T11:52:53;15.30;99.90
52965;DHT22;42923;53.220;6.528;2023-05-10T11:55:20;15.40;99.90
52965;DHT22;42923;53.220;6.528;2023-05-10T11:57:45;15.40;99.90
52965;DHT22;42923;53.220;6.528;2023-05-10T12:00:15;15.50;99.90
52965;DHT22;42923;53.220;6.528;2023-05-10T12:02:41;15.50;99.90
52965;DHT22;42923;53.220;6.528;2023-05-10T12:05:07;15.40;99.90
52965;DHT22;42923;53.220;6.528;2023-05-10T12:07:33;15.40;99.90
52965;DHT22;42923;53.220;6.528;2023-05-10T12:10:12;15.30;99.90
52965;DHT22;42923;53.220;6.528;2023-05-10T12:12:46;15.20;99.90
52965;DHT22;42923;53.220;6.528;2023-05-10T12:15:23;15.10;99.90
52965;DHT22;42923;53.220;6.528;2023-05-10T12:17:50;15.00;99.90
52965;DHT22;42923;53.220;6.528;2023-05-10T12:20:21;15.00;99.90
52965;DHT22;42923;53.220;6.528;2023-05-10T12:22:50;14.90;99.90
52965;DHT22;42923;53.220;6.528;2023-05-10T12:25:17;14.90;99.90
52965;DHT22;42923;53.220;6.528;2023-05-10T12:27:54;14.90;99.90
52965;DHT22;42923;53.220;6.528;2023-05-10T12:30:25;14.90;99.90
52965;DHT22;42923;53.220;6.528;2023-05-10T12:32:51;15.00;99.90
52965;DHT22;42923;53.220;6.528;2023-05-10T12:35:18;15.00;99.90
52965;DHT22;42923;53.220;6.528;2023-05-10T12:37:47;15.00;99.90
52965;DHT22;42923;53.220;6.528;2023-05-10T12:40:13;15.00;99.90
52965;DHT22;42923;53.220;6.528;2023-05-10T12:42:39;15.00;99.90
52965;DHT22;42923;53.220;6.528;2023-05-10T12:45:06;15.10;99.90
52965;DHT22;42923;53.220;6.528;2023-05-10T12:47:33;15.10;99.90
52965;DHT22;42923;53.220;6.528;2023-05-10T12:50:00;15.20;99.90
52965;DHT22;42923;53.220;6.528;2023-05-10T12:52:27;15.40;99.90
52965;DHT22;42923;53.220;6.528;2023-05-10T12:54:53;15.40;99.90
52965;DHT22;42923;53.220;6.528;2023-05-10T12:57:20;15.40;99.90
52965;DHT22;42923;53.220;6.528;2023-05-10T12:59:46;15.60;99.90
52965;DHT22;42923;53.220;6.528;2023-05-10T13:02:12;15.70;99.90
52965;DHT22;42923;53.220;6.528;2023-05-10T13:04:38;15.80;99.90
52965;DHT22;42923;53.220;6.528;2023-05-10T13:07:08;15.80;99.90
52965;DHT22;42923;53.220;6.528;2023-05-10T13:09:34;15.80;99.90
52965;DHT22;42923;53.220;6.528;2023-05-10T13:12:00;15.80;99.90
52965;DHT22;42923;53.220;6.528;2023-05-10T13:14:26;15.80;99.90
52965;DHT22;42923;53.220;6.528;2023-05-10T13:16:52;15.70;99.90
52965;DHT22;42923;53.220;6.528;2023-05-10T13:19:19;15.70;99.90
52965;DHT22;42923;53.220;6.528;2023-05-10T13:21:45;15.70;99.90
52965;DHT22;42923;53.220;6.528;2023-05-10T13:24:11;15.70;99.90
52965;DHT22;42923;53.220;6.528;2023-05-10T13:26:40;15.60;99.90
52965;DHT22;42923;53.220;6.528;2023-05-10T13:29:06;15.50;99.90
52965;DHT22;42923;53.220;6.528;2023-05-10T13:31:33;15.50;99.90
52965;DHT22;42923;53.220;6.528;2023-05-10T13:33:58;15.50;99.90
52965;DHT22;42923;53.220;6.528;2023-05-10T13:36:24;15.50;99.90
52965;DHT22;42923;53.220;6.528;2023-05-10T13:38:50;15.60;99.90
52965;DHT22;42923;53.220;6.528;2023-05-10T13:41:16;15.50;99.90
52965;DHT22;42923;53.220;6.528;2023-05-10T13:43:41;15.50;99.90
52965;DHT22;42923;53.220;6.528;2023-05-10T13:46:07;15.40;99.90
52965;DHT22;42923;53.220;6.528;2023-05-10T13:48:33;15.30;99.90
52965;DHT22;42923;53.220;6.528;2023-05-10T13:50:58;15.40;99.90
52965;DHT22;42923;53.220;6.528;2023-05-10T13:53:24;15.30;99.90
52965;DHT22;42923;53.220;6.528;2023-05-10T13:55:50;15.30;99.90
52965;DHT22;42923;53.220;6.528;2023-05-10T13:58:16;15.30;99.90
52965;DHT22;42923;53.220;6.528;2023-05-10T14:00:41;15.30;99.90
52965;DHT22;42923;53.220;6.528;2023-05-10T14:03:07;15.30;99.90
52965;DHT22;42923;53.220;6.528;2023-05-10T14:05:36;15.30;99.90
52965;DHT22;42923;53.220;6.528;2023-05-10T14:08:02;15.40;99.90
52965;DHT22;42923;53.220;6.528;2023-05-10T14:10:28;15.40;99.90
52965;DHT22;42923;53.220;6.528;2023-05-10T14:12:53;15.50;99.90
52965;DHT22;42923;53.220;6.528;2023-05-10T14:15:19;15.40;99.90
52965;DHT22;42923;53.220;6.528;2023-05-10T14:17:45;15.40;99.90
52965;DHT22;42923;53.220;6.528;2023-05-10T14:20:11;15.30;99.90
52965;DHT22;42923;53.220;6.528;2023-05-10T14:22:36;15.40;99.90
52965;DHT22;42923;53.220;6.528;2023-05-10T14:25:02;15.50;99.90
52965;DHT22;42923;53.220;6.528;2023-05-10T14:27:29;15.50;99.90
52965;DHT22;42923;53.220;6.528;2023-05-10T14:29:55;15.60;99.90
52965;DHT22;42923;53.220;6.528;2023-05-10T14:32:21;15.70;99.90
52965;DHT22;42923;53.220;6.528;2023-05-10T14:34:47;15.80;99.90
52965;DHT22;42923;53.220;6.528;2023-05-10T14:37:13;15.90;99.90
52965;DHT22;42923;53.220;6.528;2023-05-10T14:39:39;16.10;99.90
52965;DHT22;42923;53.220;6.528;2023-05-10T14:42:05;16.30;99.90
52965;DHT22;42923;53.220;6.528;2023-05-10T14:44:30;16.40;99.90
52965;DHT22;42923;53.220;6.528;2023-05-10T14:46:57;16.40;99.90
52965;DHT22;42923;53.220;6.528;2023-05-10T14:49:22;16.50;99.90
52965;DHT22;42923;53.220;6.528;2023-05-10T14:51:51;16.70;99.90
52965;DHT22;42923;53.220;6.528;2023-05-10T14:54:17;16.80;99.90
52965;DHT22;42923;53.220;6.528;2023-05-10T14:56:42;17.00;99.90
52965;DHT22;42923;53.220;6.528;2023-05-10T14:59:08;17.00;99.90
52965;DHT22;42923;53.220;6.528;2023-05-10T15:01:34;16.80;99.90
52965;DHT22;42923;53.220;6.528;2023-05-10T15:04:03;16.80;99.90
52965;DHT22;42923;53.220;6.528;2023-05-10T15:06:33;16.80;99.90
52965;DHT22;42923;53.220;6.528;2023-05-10T15:09:00;16.70;99.90
52965;DHT22;42923;53.220;6.528;2023-05-10T15:11:26;16.70;99.90
52965;DHT22;42923;53.220;6.528;2023-05-10T15:13:52;16.60;99.90
52965;DHT22;42923;53.220;6.528;2023-05-10T15:16:18;16.60;99.90
52965;DHT22;42923;53.220;6.528;2023-05-10T15:18:44;16.60;99.90
52965;DHT22;42923;53.220;6.528;2023-05-10T15:21:11;16.60;99.90
52965;DHT22;42923;53.220;6.528;2023-05-10T15:23:37;16.50;99.90
52965;DHT22;42923;53.220;6.528;2023-05-10T15:26:03;16.50;99.90
52965;DHT22;42923;53.220;6.528;2023-05-10T15:28:29;16.40;99.90
52965;DHT22;42923;53.220;6.528;2023-05-10T15:30:55;16.30;99.90
52965;DHT22;42923;53.220;6.528;2023-05-10T15:33:22;16.20;99.90
52965;DHT22;42923;53.220;6.528;2023-05-10T15:35:48;16.00;99.90
52965;DHT22;42923;53.220;6.528;2023-05-10T15:38:13;15.90;99.90
52965;DHT22;42923;53.220;6.528;2023-05-10T15:40:39;15.80;99.90
52965;DHT22;42923;53.220;6.528;2023-05-10T15:43:05;15.60;99.90
52965;DHT22;42923;53.220;6.528;2023-05-10T15:45:31;15.50;99.90
52965;DHT22;42923;53.220;6.528;2023-05-10T15:47:58;15.40;99.90
52965;DHT22;42923;53.220;6.528;2023-05-10T15:50:24;15.30;99.90
52965;DHT22;42923;53.220;6.528;2023-05-10T15:52:50;15.20;99.90
52965;DHT22;42923;53.220;6.528;2023-05-10T15:55:16;15.10;99.90